Bluebell, South Dakota
Current Conditions -  °F | °C
As of 1:53 PM on Tuesday 21 Oct 2014 (Local Time) from KCUT Reporting Station
Clear Clear  
Wind Chill: 71°   Ceiling: Unl
Heat Index: 71°   Visibility: 10mi
Dew Point: 37°   Wind: 12mph
Humidity: 29%   Direction: 220°SW
Pressure: 29.89"   Gusts: 25mph
Location:  43.6653°N, 103.766°W
Report Text: KCUT 211953Z AUTO 22010G22KT 10SM CLR 22/03 A2989 RMK AO2 SLP062 T02170028
Loading
Personal Weather Stations






























Interactive Weather Map
Tropical Storm Tracking
New forecast layout! Learn more

10-Day Weather Forecast

Advertisements
Track Severe Weather on mobile